Time;durP1;ratioP1;P1;durP2;ratioP2;P2;SDS_P1;SDS_P2;PMS_P1;PMS_P2;Temp;Humidity;BMP_temperature;BMP_pressure;BME280_temperature;BME280_humidity;BME280_pressure;Samples;Min_cycle;Max_cycle;Signal;HPM_P1;HPM_P2
2020/08/12 00:01:56;;;;;;;6.2;1.7;;;;;;;20.68;79.25;939.4099;;;;
2020/08/12 00:04:21;;;;;;;2.5;1.9;;;;;;;20.73;79.12109;939.4358;;;;
2020/08/12 00:06:48;;;;;;;3;1.9;;;;;;;20.65;79.61914;939.4454;;;;
2020/08/12 00:09:13;;;;;;;2.4;1.5;;;;;;;20.7;79.35938;939.4813;;;;
2020/08/12 00:11:38;;;;;;;3;2.2;;;;;;;20.55;79.72949;939.4389;;;;
2020/08/12 00:14:03;;;;;;;3;1.9;;;;;;;20.47;80.20508;939.4169;;;;
2020/08/12 00:16:31;;;;;;;3.1;1.9;;;;;;;20.48;80.18555;939.4229;;;;
2020/08/12 00:18:57;;;;;;;3.5;1.9;;;;;;;20.64;79.52344;939.389;;;;
2020/08/12 00:21:23;;;;;;;3.9;1.5;;;;;;;20.69;78.75;939.4394;;;;
2020/08/12 00:23:49;;;;;;;2.4;1.5;;;;;;;20.73;78.38281;939.4504;;;;
2020/08/12 00:26:14;;;;;;;2.6;1.8;;;;;;;20.6;78.94336;939.4286;;;;
2020/08/12 00:28:39;;;;;;;2.4;1.6;;;;;;;20.5;79.20605;939.4322;;;;
2020/08/12 00:31:04;;;;;;;4.6;2;;;;;;;20.48;79.46094;939.3825;;;;
2020/08/12 00:33:29;;;;;;;2.3;1.7;;;;;;;20.46;79.63184;939.3063;;;;
2020/08/12 00:35:54;;;;;;;3.6;2;;;;;;;20.4;79.88867;939.355;;;;
2020/08/12 00:38:19;;;;;;;2.3;1.7;;;;;;;20.37;80.15234;939.3209;;;;
2020/08/12 00:40:45;;;;;;;4.4;1.7;;;;;;;20.43;79.56836;939.2601;;;;
2020/08/12 00:43:11;;;;;;;2.6;1.7;;;;;;;20.47;79.5166;939.2915;;;;
2020/08/12 00:45:36;;;;;;;2.4;1.5;;;;;;;20.52;79.31543;939.2829;;;;
2020/08/12 00:48:01;;;;;;;1.8;1.3;;;;;;;20.57;79.06641;939.2589;;;;
2020/08/12 00:50:33;;;;;;;2.5;1.7;;;;;;;20.57;78.62305;939.2166;;;;
2020/08/12 00:52:58;;;;;;;1.9;1.5;;;;;;;20.6;78.78125;939.2158;;;;
2020/08/12 00:55:23;;;;;;;3.3;1.9;;;;;;;20.5;79.28906;939.2379;;;;
2020/08/12 00:58:07;;;;;;;2;1.4;;;;;;;20.34;80.10059;939.2037;;;;
2020/08/12 01:00:16;;;;;;;3.9;2;;;;;;;20.22;80.32422;939.1939;;;;
2020/08/12 01:02:42;;;;;;;4.1;2.1;;;;;;;20.18;80.82031;939.2189;;;;
2020/08/12 01:05:08;;;;;;;3.6;1.6;;;;;;;20.29;80.12598;939.1873;;;;
2020/08/12 01:07:33;;;;;;;2.2;1.9;;;;;;;20.26;80.03906;939.1808;;;;
2020/08/12 01:09:58;;;;;;;3.6;2.2;;;;;;;20.24;80.24609;939.2347;;;;
2020/08/12 01:12:25;;;;;;;4.3;1.7;;;;;;;20.3;80.12891;939.2476;;;;
2020/08/12 01:14:50;;;;;;;2.6;2;;;;;;;20.43;79.26465;939.2148;;;;
2020/08/12 01:17:16;;;;;;;2.8;2;;;;;;;20.33;79.32813;939.2258;;;;
2020/08/12 01:19:41;;;;;;;7.5;1.9;;;;;;;20.29;79.57715;939.2115;;;;
2020/08/12 01:22:06;;;;;;;4.4;2.2;;;;;;;20.12;80.69043;939.1446;;;;
2020/08/12 01:24:31;;;;;;;3.4;2.1;;;;;;;20.05;81.02832;939.1495;;;;
2020/08/12 01:26:58;;;;;;;4.3;2.7;;;;;;;20.04;81.13184;939.0865;;;;
2020/08/12 01:29:23;;;;;;;4.3;1.8;;;;;;;20.05;80.99512;939.0961;;;;
2020/08/12 01:31:48;;;;;;;2.1;1.3;;;;;;;20.2;80.47168;939.0786;;;;
2020/08/12 01:34:13;;;;;;;1.9;1.4;;;;;;;20.33;79.69043;939.09;;;;
2020/08/12 01:36:38;;;;;;;2.2;1.7;;;;;;;20.39;78.20703;939.1255;;;;
2020/08/12 01:39:04;;;;;;;2.9;1.8;;;;;;;20.38;77.56152;939.1316;;;;
2020/08/12 01:41:31;;;;;;;2.6;1.8;;;;;;;20.2;78.76758;939.0859;;;;
2020/08/12 01:43:56;;;;;;;7;2.5;;;;;;;20.15;79.36621;939.1008;;;;
2020/08/12 01:46:21;;;;;;;2.6;1.8;;;;;;;20.05;80.29297;939.1149;;;;
2020/08/12 01:48:47;;;;;;;3.3;2;;;;;;;19.97;80.71191;939.1238;;;;
2020/08/12 01:51:12;;;;;;;4.2;1.9;;;;;;;19.96;80.69727;939.1394;;;;
2020/08/12 01:53:37;;;;;;;4.1;2.5;;;;;;;19.9;80.83887;939.1627;;;;
2020/08/12 01:56:11;;;;;;;4.3;2.2;;;;;;;19.92;80.98242;939.142;;;;
2020/08/12 01:58:36;;;;;;;3.7;2.1;;;;;;;20.06;80.24805;939.2438;;;;
2020/08/12 02:01:06;;;;;;;3.2;1.9;;;;;;;20.05;80.02539;939.1431;;;;
2020/08/12 02:03:31;;;;;;;3.5;2.5;;;;;;;20.1;79.35645;939.1103;;;;
2020/08/12 02:05:57;;;;;;;4.7;1.7;;;;;;;20.09;79.25;939.1599;;;;
2020/08/12 02:08:22;;;;;;;2.5;1.8;;;;;;;19.89;80.125;939.204;;;;
2020/08/12 02:10:47;;;;;;;2.8;1.9;;;;;;;19.74;81.0293;939.1819;;;;
2020/08/12 02:13:12;;;;;;;3.7;2.2;;;;;;;19.66;81.50488;939.1828;;;;
2020/08/12 02:15:38;;;;;;;2.5;1.9;;;;;;;19.56;82.13965;939.2269;;;;
2020/08/12 02:18:03;;;;;;;3.6;2.6;;;;;;;19.41;82.84473;939.187;;;;
2020/08/12 02:20:29;;;;;;;2;1.8;;;;;;;19.38;82.9668;939.2307;;;;
2020/08/12 02:22:54;;;;;;;2.4;1.8;;;;;;;19.34;83.25098;939.2009;;;;
2020/08/12 02:25:19;;;;;;;4.5;2.1;;;;;;;19.36;82.98633;939.2255;;;;
2020/08/12 02:27:44;;;;;;;3.2;1.7;;;;;;;19.39;82.85547;939.1995;;;;
2020/08/12 02:30:09;;;;;;;3.3;2.3;;;;;;;19.44;82.59375;939.169;;;;
2020/08/12 02:32:34;;;;;;;3.4;2.3;;;;;;;19.43;82.4541;939.1489;;;;
2020/08/12 02:34:59;;;;;;;3.4;1.7;;;;;;;19.46;82.55078;939.1394;;;;
2020/08/12 02:37:25;;;;;;;3;1.8;;;;;;;19.59;81.8418;939.1609;;;;
2020/08/12 02:39:50;;;;;;;3.5;1.7;;;;;;;19.71;81.00098;939.1194;;;;
2020/08/12 02:42:15;;;;;;;2.7;1.9;;;;;;;19.81;80.33105;939.0847;;;;
2020/08/12 02:44:40;;;;;;;4.4;2.2;;;;;;;19.88;80.04102;939.0097;;;;
2020/08/12 02:47:05;;;;;;;2.1;1.5;;;;;;;19.84;80.23047;939.0616;;;;
2020/08/12 02:49:30;;;;;;;4.2;2.6;;;;;;;19.84;79.91602;939.0536;;;;
2020/08/12 02:51:55;;;;;;;3.4;2.3;;;;;;;19.64;80.98926;939.0961;;;;
2020/08/12 02:54:21;;;;;;;6.9;2.2;;;;;;;19.49;81.87012;939.0481;;;;
2020/08/12 02:56:48;;;;;;;2.8;2;;;;;;;19.46;82.35254;939.0344;;;;
2020/08/12 02:59:13;;;;;;;4.8;2.6;;;;;;;19.6;81.66797;939.0556;;;;
2020/08/12 03:01:38;;;;;;;3.3;2.1;;;;;;;19.53;81.62207;939.0084;;;;
2020/08/12 03:04:03;;;;;;;3.4;2.3;;;;;;;19.49;81.33398;939.0401;;;;
2020/08/12 03:06:28;;;;;;;4.9;2.7;;;;;;;19.27;82.43555;939.0111;;;;
2020/08/12 03:08:53;;;;;;;4.7;2.7;;;;;;;18.97;84.12402;939.0244;;;;
2020/08/12 03:11:22;;;;;;;6.9;2.9;;;;;;;18.99;84.18555;939.0966;;;;
2020/08/12 03:13:56;;;;;;;6.3;2.7;;;;;;;19.01;84.35352;939.1066;;;;
2020/08/12 03:16:38;;;;;;;3.3;1.8;;;;;;;19;84.42188;939.1431;;;;
2020/08/12 03:19:06;;;;;;;3.4;2.4;;;;;;;19.07;84.08496;939.175;;;;
2020/08/12 03:21:31;;;;;;;3.2;2;;;;;;;19.1;83.85742;939.168;;;;
2020/08/12 03:23:56;;;;;;;4.2;2.4;;;;;;;19.16;83.55469;939.207;;;;
2020/08/12 03:26:21;;;;;;;4.1;2.2;;;;;;;19.21;83.13379;939.1752;;;;
2020/08/12 03:28:47;;;;;;;3.6;2.2;;;;;;;19.32;82.51367;939.2085;;;;
2020/08/12 03:31:12;;;;;;;3;1.9;;;;;;;19.49;81.90332;939.2106;;;;
2020/08/12 03:33:37;;;;;;;2.3;1.8;;;;;;;19.47;81.58691;939.2426;;;;
2020/08/12 03:36:03;;;;;;;3.8;2.1;;;;;;;19.35;82.01758;939.216;;;;
2020/08/12 03:38:28;;;;;;;3.3;2.1;;;;;;;19.2;82.30371;939.269;;;;
2020/08/12 03:40:58;;;;;;;2.9;1.9;;;;;;;19.14;82.50293;939.2567;;;;
2020/08/12 03:43:25;;;;;;;3;1.9;;;;;;;18.94;83.71191;939.2654;;;;
2020/08/12 03:45:54;;;;;;;5.6;2.7;;;;;;;18.9;84.16797;939.2374;;;;
2020/08/12 03:48:19;;;;;;;3.3;2.2;;;;;;;18.9;84.13477;939.28;;;;
2020/08/12 03:50:44;;;;;;;3;1.9;;;;;;;18.94;84.01367;939.2775;;;;
2020/08/12 03:53:10;;;;;;;5.7;2.8;;;;;;;18.9;84.01758;939.2656;;;;
2020/08/12 03:55:37;;;;;;;7.9;2.3;;;;;;;18.92;83.91797;939.2586;;;;
2020/08/12 03:58:03;;;;;;;4.3;2;;;;;;;19.02;83.59668;939.2897;;;;
2020/08/12 04:02:32;;;;;;;7.1;2.7;;;;;;;19.13;82.89941;939.4037;;;;
2020/08/12 04:04:57;;;;;;;5.1;2.4;;;;;;;19.14;82.62012;939.4497;;;;
2020/08/12 04:07:22;;;;;;;4.5;2.3;;;;;;;19;82.93164;939.4295;;;;
2020/08/12 04:09:48;;;;;;;4.5;2.6;;;;;;;18.93;83.40527;939.4724;;;;
2020/08/12 04:12:16;;;;;;;5.1;2.5;;;;;;;18.88;83.75781;939.5106;;;;
2020/08/12 04:14:47;;;;;;;4.6;2.6;;;;;;;18.82;84.16602;939.5125;;;;
2020/08/12 04:17:13;;;;;;;4.5;2.5;;;;;;;18.82;84.25781;939.4453;;;;
2020/08/12 04:19:38;;;;;;;3.6;1.9;;;;;;;18.83;84.51758;939.4348;;;;
2020/08/12 04:22:03;;;;;;;2.8;1.9;;;;;;;18.93;83.73145;939.4933;;;;
2020/08/12 04:24:29;;;;;;;4.7;2.2;;;;;;;19.11;82.96387;939.485;;;;
2020/08/12 04:26:54;;;;;;;5.3;2.2;;;;;;;19.1;82.49512;939.3585;;;;
2020/08/12 04:29:19;;;;;;;14.1;2.3;;;;;;;19.09;82.77441;939.4838;;;;
2020/08/12 04:31:44;;;;;;;5.6;2.4;;;;;;;19.13;82.89746;939.416;;;;
2020/08/12 04:34:12;;;;;;;4.7;2.3;;;;;;;19.13;82.62988;939.394;;;;
2020/08/12 04:36:37;;;;;;;3.7;2.1;;;;;;;18.94;83.4209;939.4302;;;;
2020/08/12 04:39:02;;;;;;;3.4;2;;;;;;;18.8;84.19629;939.4489;;;;
2020/08/12 04:41:29;;;;;;;2.1;1.7;;;;;;;18.81;83.97852;939.4397;;;;
2020/08/12 04:43:54;;;;;;;3.9;2.1;;;;;;;18.82;83.75684;939.4097;;;;
2020/08/12 04:46:19;;;;;;;5.3;2.5;;;;;;;18.78;83.93848;939.475;;;;
2020/08/12 04:48:45;;;;;;;4.9;2.2;;;;;;;18.75;84.23242;939.4589;;;;
2020/08/12 04:51:13;;;;;;;4.5;2.5;;;;;;;18.78;84.1709;939.4411;;;;
2020/08/12 04:53:38;;;;;;;2.9;2.2;;;;;;;18.67;84.3584;939.4645;;;;
2020/08/12 04:56:03;;;;;;;5.4;2.5;;;;;;;18.48;85.20508;939.4828;;;;
2020/08/12 04:58:28;;;;;;;6.6;2.9;;;;;;;18.5;85.67383;939.4825;;;;
2020/08/12 05:00:53;;;;;;;5.2;2;;;;;;;18.59;85.53906;939.4994;;;;
2020/08/12 05:03:19;;;;;;;4.9;1.9;;;;;;;18.56;85.44238;939.4756;;;;
2020/08/12 05:05:45;;;;;;;3.9;2.4;;;;;;;18.59;85.58691;939.4807;;;;
2020/08/12 05:08:10;;;;;;;4.8;2.3;;;;;;;18.72;85.05273;939.4086;;;;
2020/08/12 05:10:47;;;;;;;4.6;2.1;;;;;;;18.83;84.51758;939.4269;;;;
2020/08/12 05:13:21;;;;;;;3.9;2.1;;;;;;;18.81;84.72266;939.5188;;;;
2020/08/12 05:15:54;;;;;;;6.5;2.7;;;;;;;18.84;84.60059;939.4846;;;;
2020/08/12 05:18:19;;;;;;;3.5;2.1;;;;;;;18.92;84.23047;939.4581;;;;
2020/08/12 05:20:49;;;;;;;8.1;2.7;;;;;;;18.79;84.88086;939.5112;;;;
2020/08/12 05:23:16;;;;;;;6.1;2.5;;;;;;;18.87;84.80371;939.4824;;;;
2020/08/12 05:25:41;;;;;;;4;2.4;;;;;;;19.06;84.1084;939.4359;;;;
2020/08/12 05:28:06;;;;;;;2.6;1.7;;;;;;;19.32;83.10742;939.4451;;;;
2020/08/12 05:30:32;;;;;;;3.4;2.1;;;;;;;19.5;81.95313;939.4469;;;;
2020/08/12 05:33:02;;;;;;;13.8;2.9;;;;;;;19.54;81.86621;939.4399;;;;
2020/08/12 05:35:28;;;;;;;4.8;2.5;;;;;;;19.95;80.74023;939.4825;;;;
2020/08/12 05:37:56;;;;;;;4.1;2.3;;;;;;;21.07;76.4082;939.4576;;;;
2020/08/12 05:40:23;;;;;;;2.9;1.9;;;;;;;21.96;72.15527;939.4738;;;;
2020/08/12 05:42:51;;;;;;;2.4;1.9;;;;;;;22.77;68.87012;939.51;;;;
2020/08/12 05:45:16;;;;;;;5.5;2.1;;;;;;;23.65;65.05469;939.5271;;;;
2020/08/12 05:47:47;;;;;;;4.8;2;;;;;;;24.28;63.12109;939.5204;;;;
2020/08/12 05:50:13;;;;;;;2.8;1.5;;;;;;;25.03;60.67676;939.5454;;;;
2020/08/12 05:52:38;;;;;;;2.2;1.4;;;;;;;25.68;58.83887;939.4664;;;;
2020/08/12 05:55:06;;;;;;;1.4;1.3;;;;;;;26.47;56.19727;939.4405;;;;
2020/08/12 05:57:44;;;;;;;4.5;1.5;;;;;;;27.53;53.39941;939.5084;;;;
2020/08/12 06:00:09;;;;;;;1.1;1;;;;;;;28.25;51.54688;939.4963;;;;
2020/08/12 06:02:35;;;;;;;2.4;1.4;;;;;;;27.39;52.90723;939.5086;;;;
2020/08/12 06:05:01;;;;;;;1.8;1.5;;;;;;;26.66;54.4082;939.4723;;;;
2020/08/12 06:07:28;;;;;;;3.7;1.5;;;;;;;25.86;57.39746;939.435;;;;
2020/08/12 06:09:54;;;;;;;3.7;1.8;;;;;;;26.07;56.77344;939.4275;;;;
2020/08/12 06:12:19;;;;;;;3.8;1.5;;;;;;;26.57;54.37402;939.4731;;;;
2020/08/12 06:14:44;;;;;;;2.1;1.3;;;;;;;26.4;54.58984;939.4169;;;;
2020/08/12 06:17:09;;;;;;;2.6;1.7;;;;;;;26.44;54.5;939.3987;;;;
2020/08/12 06:19:34;;;;;;;1.8;1.2;;;;;;;26.42;53.77539;939.4152;;;;
2020/08/12 06:21:59;;;;;;;11;1.2;;;;;;;26.96;53.99414;939.3953;;;;
2020/08/12 06:24:24;;;;;;;2.1;1.6;;;;;;;26.91;53.34766;939.463;;;;
2020/08/12 06:26:51;;;;;;;2.7;1.8;;;;;;;28.2;51.08887;939.4553;;;;
2020/08/12 06:29:17;;;;;;;1.8;1.3;;;;;;;27.18;51.68555;939.472;;;;
2020/08/12 06:31:43;;;;;;;1.2;1.1;;;;;;;26.81;52.73145;939.4039;;;;
2020/08/12 06:34:08;;;;;;;2.5;1.5;;;;;;;26.95;53.43555;939.384;;;;
2020/08/12 06:36:34;;;;;;;1.3;1.2;;;;;;;27.7;51.67383;939.3878;;;;
2020/08/12 06:38:59;;;;;;;2.9;1.5;;;;;;;28.73;49.80566;939.2999;;;;
2020/08/12 06:41:26;;;;;;;2.4;1.5;;;;;;;30.14;45.04297;939.2841;;;;
2020/08/12 06:43:55;;;;;;;3;1.6;;;;;;;30.15;45.99902;939.252;;;;
2020/08/12 06:46:23;;;;;;;7.4;1.4;;;;;;;30.91;44.76172;939.23;;;;
2020/08/12 06:48:50;;;;;;;2.6;1.6;;;;;;;31.58;42.11035;939.2466;;;;
2020/08/12 06:51:17;;;;;;;1.1;1;;;;;;;32.32;40.93066;939.2073;;;;
2020/08/12 06:53:42;;;;;;;1.5;1.2;;;;;;;32.49;41.16309;939.2598;;;;
2020/08/12 06:56:07;;;;;;;1.5;1;;;;;;;31.76;40.74902;939.2312;;;;
2020/08/12 06:58:32;;;;;;;1.2;1.1;;;;;;;31.67;41.05176;939.2361;;;;
2020/08/12 07:01:03;;;;;;;1.7;1.2;;;;;;;31.71;40.7793;939.2514;;;;
2020/08/12 07:03:28;;;;;;;2.3;1.2;;;;;;;31.99;42.5918;939.27;;;;
2020/08/12 07:05:53;;;;;;;1.7;1.3;;;;;;;32.28;41.39453;939.228;;;;
2020/08/12 07:08:18;;;;;;;1.4;1;;;;;;;32.66;40.61328;939.2214;;;;
2020/08/12 07:10:45;;;;;;;2.6;1.3;;;;;;;32.85;40.39063;939.2073;;;;
2020/08/12 07:13:10;;;;;;;1.5;1.1;;;;;;;32.92;40.69727;939.1794;;;;
2020/08/12 07:15:39;;;;;;;1.5;1.2;;;;;;;32.35;40.25;939.2167;;;;
2020/08/12 07:18:04;;;;;;;1;0.8;;;;;;;33.2;38.15039;939.1437;;;;
2020/08/12 07:20:36;;;;;;;1.4;1.3;;;;;;;33.64;37.09277;939.1481;;;;
2020/08/12 07:23:01;;;;;;;2.8;1.2;;;;;;;32.19;40.12793;939.1611;;;;
2020/08/12 07:25:27;;;;;;;1.5;1.1;;;;;;;32.54;38.75488;939.1089;;;;
2020/08/12 07:27:52;;;;;;;1;0.9;;;;;;;32.88;38.36328;939.0675;;;;
2020/08/12 07:30:28;;;;;;;1.2;0.9;;;;;;;33.68;37.87891;939.0314;;;;
2020/08/12 07:32:54;;;;;;;1.7;0.9;;;;;;;34.32;36.18555;939.0627;;;;
2020/08/12 07:35:20;;;;;;;1.6;1.4;;;;;;;34.78;35.29297;939.0552;;;;
2020/08/12 07:37:48;;;;;;;3;1.3;;;;;;;34.6;34.86914;939.0224;;;;
2020/08/12 07:40:19;;;;;;;1.1;1;;;;;;;35.33;34.39355;939.0215;;;;
2020/08/12 07:42:45;;;;;;;13;2.1;;;;;;;35.92;35.00586;939.0165;;;;
2020/08/12 07:45:10;;;;;;;1.2;0.9;;;;;;;36.54;33.80664;938.9783;;;;
2020/08/12 07:47:35;;;;;;;1.4;0.9;;;;;;;37.06;31.17969;938.9623;;;;
2020/08/12 07:50:03;;;;;;;3.3;1.2;;;;;;;37.53;32.30273;938.9229;;;;
2020/08/12 07:52:28;;;;;;;1.2;1.1;;;;;;;38.69;30.90039;938.9109;;;;
2020/08/12 07:54:54;;;;;;;1.7;1.1;;;;;;;39.15;29.03223;938.8782;;;;
2020/08/12 07:57:19;;;;;;;3.6;1.3;;;;;;;38.22;28.82813;938.8655;;;;
2020/08/12 07:59:44;;;;;;;1.9;1.3;;;;;;;38.94;29.5791;938.8806;;;;
2020/08/12 08:02:09;;;;;;;1.2;1;;;;;;;39.29;27.42188;938.9138;;;;
2020/08/12 08:04:34;;;;;;;1.8;1.1;;;;;;;39.65;26.88281;938.927;;;;
2020/08/12 08:07:00;;;;;;;2.6;1.4;;;;;;;40.6;27.1582;938.9286;;;;
2020/08/12 08:09:27;;;;;;;1;0.9;;;;;;;40.23;27.80762;938.9203;;;;
2020/08/12 08:11:52;;;;;;;2.3;0.8;;;;;;;40.69;27.62793;938.9311;;;;
2020/08/12 08:14:19;;;;;;;1.3;1.2;;;;;;;39.01;27.53906;938.8844;;;;
2020/08/12 08:16:44;;;;;;;1.4;1;;;;;;;39.23;29.43945;938.9143;;;;
2020/08/12 08:19:10;;;;;;;1;0.8;;;;;;;40.22;26.80566;938.9286;;;;
2020/08/12 08:21:35;;;;;;;1.1;1;;;;;;;40.68;25.74512;938.9439;;;;
2020/08/12 08:24:00;;;;;;;1.5;0.9;;;;;;;40.88;26.9541;938.8951;;;;
2020/08/12 08:26:25;;;;;;;1.7;1.1;;;;;;;39.29;29.05371;938.865;;;;
2020/08/12 08:28:50;;;;;;;1.7;1;;;;;;;40.03;28.32031;938.895;;;;
2020/08/12 08:31:19;;;;;;;1.4;1.1;;;;;;;40.71;27.20117;938.8911;;;;
2020/08/12 08:33:44;;;;;;;2.8;1.4;;;;;;;40.03;28.63672;938.8455;;;;
2020/08/12 08:36:11;;;;;;;1.8;1.3;;;;;;;39.05;30.6582;938.8195;;;;
2020/08/12 08:38:36;;;;;;;1.8;1;;;;;;;39.72;29.94629;938.8476;;;;
2020/08/12 08:41:09;;;;;;;1.3;0.8;;;;;;;39.76;29.76563;938.8733;;;;
2020/08/12 08:43:34;;;;;;;3.8;1.2;;;;;;;39.62;30.23145;938.8557;;;;
2020/08/12 08:46:05;;;;;;;2;1.1;;;;;;;40.33;29.13184;938.8469;;;;
2020/08/12 08:48:31;;;;;;;1.1;1;;;;;;;39.41;30.74219;938.8067;;;;
2020/08/12 08:50:56;;;;;;;1.4;1;;;;;;;40.44;29.60254;938.8251;;;;
2020/08/12 08:53:21;;;;;;;1.5;0.9;;;;;;;40.62;30.07715;938.8039;;;;
2020/08/12 08:55:46;;;;;;;2.5;1.1;;;;;;;39.97;30.08398;938.7313;;;;
2020/08/12 08:58:11;;;;;;;2.3;1.3;;;;;;;40.23;28.33203;938.7584;;;;
2020/08/12 09:00:39;;;;;;;2.3;0.9;;;;;;;40.27;29.29785;938.7905;;;;
2020/08/12 09:03:05;;;;;;;1.7;0.9;;;;;;;39.83;29.74609;938.7352;;;;
2020/08/12 09:05:31;;;;;;;1;0.9;;;;;;;40.28;29.36035;938.692;;;;
2020/08/12 09:07:56;;;;;;;2.1;1.5;;;;;;;39.39;31.04492;938.6528;;;;
2020/08/12 09:10:29;;;;;;;24.2;1.4;;;;;;;39.82;28.92871;938.6378;;;;
2020/08/12 09:12:54;;;;;;;1.5;1.2;;;;;;;39.35;31.50488;938.5997;;;;
2020/08/12 09:15:22;;;;;;;1.6;1.1;;;;;;;38.85;32.61426;938.5873;;;;
2020/08/12 09:17:51;;;;;;;1.6;1.2;;;;;;;37.69;33.22461;938.5717;;;;
2020/08/12 09:20:20;;;;;;;2.2;1.3;;;;;;;37.37;34.67969;938.527;;;;
2020/08/12 09:22:45;;;;;;;1.1;1;;;;;;;37.5;34.27734;938.5341;;;;
2020/08/12 09:25:13;;;;;;;1.8;1.4;;;;;;;37.25;34.91406;938.4803;;;;
2020/08/12 09:27:39;;;;;;;2.2;1.2;;;;;;;37.21;35.44434;938.4601;;;;
2020/08/12 09:30:13;;;;;;;1.1;0.9;;;;;;;37.06;36.0752;938.4758;;;;
2020/08/12 09:32:38;;;;;;;1.9;1.3;;;;;;;36.42;38.0332;938.514;;;;
2020/08/12 09:35:04;;;;;;;2.1;1.1;;;;;;;35.73;38.44727;938.4818;;;;
2020/08/12 09:37:29;;;;;;;1.3;1.1;;;;;;;35.53;39.37207;938.5193;;;;
2020/08/12 09:39:54;;;;;;;1.8;1.3;;;;;;;35.2;39.1748;938.5359;;;;
2020/08/12 09:42:21;;;;;;;2.5;1.6;;;;;;;35.02;41.81348;938.5497;;;;
2020/08/12 09:44:46;;;;;;;2.1;1.3;;;;;;;34.93;40.86523;938.4711;;;;
2020/08/12 09:47:11;;;;;;;2.6;1.5;;;;;;;34.89;40.19727;938.4525;;;;
2020/08/12 09:49:37;;;;;;;2.2;1.4;;;;;;;34.71;41.80957;938.4644;;;;
2020/08/12 09:52:02;;;;;;;1.5;1.1;;;;;;;34.76;41.44043;938.4853;;;;
2020/08/12 09:54:28;;;;;;;2.2;1.4;;;;;;;34.76;41.48828;938.4634;;;;
2020/08/12 09:56:55;;;;;;;1.5;1.3;;;;;;;34.85;41.41211;938.4681;;;;
2020/08/12 09:59:20;;;;;;;2.4;1.6;;;;;;;34.83;41.84473;938.4733;;;;
2020/08/12 10:01:50;;;;;;;1.5;1;;;;;;;35.05;41.64746;938.4802;;;;
2020/08/12 10:04:15;;;;;;;1.9;1.2;;;;;;;35.31;39.88379;938.5203;;;;
2020/08/12 10:06:40;;;;;;;1.5;1.1;;;;;;;35.43;37.87891;938.4138;;;;
2020/08/12 10:09:05;;;;;;;1.3;1.1;;;;;;;34.87;39.88281;938.4714;;;;
2020/08/12 10:11:35;;;;;;;1.7;1.3;;;;;;;34.5;39.81445;938.4103;;;;
2020/08/12 10:13:59;;;;;;;3.4;1.2;;;;;;;33.78;42.0127;938.4051;;;;
2020/08/12 10:16:32;;;;;;;1.2;1;;;;;;;34.27;40.7334;938.3713;;;;
2020/08/12 10:18:57;;;;;;;1.6;1.3;;;;;;;34.54;41.48047;938.3959;;;;
2020/08/12 10:21:25;;;;;;;1.2;1;;;;;;;35.32;40.58594;938.3851;;;;
2020/08/12 10:23:50;;;;;;;1.6;1.1;;;;;;;35.34;39.875;938.4029;;;;
2020/08/12 10:26:15;;;;;;;1.6;1.2;;;;;;;35.51;38.49023;938.3833;;;;
2020/08/12 10:28:40;;;;;;;1.5;1.1;;;;;;;35.33;39.88672;938.3883;;;;
2020/08/12 10:31:06;;;;;;;2;1.4;;;;;;;35.82;38.58789;938.373;;;;
2020/08/12 10:33:31;;;;;;;2.2;1.4;;;;;;;35.97;39.31348;938.3405;;;;
2020/08/12 10:35:58;;;;;;;2.1;1.2;;;;;;;36.54;38.52734;938.3975;;;;
2020/08/12 10:38:23;;;;;;;2.7;1.4;;;;;;;36.72;37.18652;938.4022;;;;
2020/08/12 10:40:49;;;;;;;2.2;1.4;;;;;;;36.78;36.00391;938.3876;;;;
2020/08/12 10:43:14;;;;;;;2.1;1.2;;;;;;;36.86;36.80957;938.3552;;;;
2020/08/12 10:45:47;;;;;;;3.3;1.4;;;;;;;36.94;36.81641;938.3342;;;;
2020/08/12 10:48:12;;;;;;;1.9;1.2;;;;;;;36.87;36.73828;938.3753;;;;
2020/08/12 10:50:37;;;;;;;1.3;1.2;;;;;;;36.99;36.83301;938.3477;;;;
2020/08/12 10:53:02;;;;;;;1.7;1.4;;;;;;;36.92;35.3252;938.3837;;;;
2020/08/12 10:55:28;;;;;;;1.6;1.3;;;;;;;36.58;36.67871;938.4434;;;;
2020/08/12 10:57:53;;;;;;;1.3;1.2;;;;;;;36.26;38.72168;938.4807;;;;
2020/08/12 11:00:31;;;;;;;2.2;1.3;;;;;;;35.58;39.63086;938.4901;;;;
2020/08/12 11:02:57;;;;;;;2;1.2;;;;;;;34.38;41.17676;938.4944;;;;
2020/08/12 11:05:23;;;;;;;1.7;1.4;;;;;;;33.78;43.48047;938.5449;;;;
2020/08/12 11:07:50;;;;;;;1.6;1.1;;;;;;;31.7;48.45605;938.5873;;;;
2020/08/12 11:10:23;;;;;;;1.5;1.4;;;;;;;30.82;49.97656;938.552;;;;
2020/08/12 11:12:56;;;;;;;2.4;1.3;;;;;;;30.52;51.35254;938.5764;;;;
2020/08/12 11:15:34;;;;;;;2.9;1.5;;;;;;;30.35;51.42773;938.5378;;;;
2020/08/12 11:18:00;;;;;;;2;1.8;;;;;;;29.88;51.85156;938.5229;;;;
2020/08/12 11:20:28;;;;;;;2;1.4;;;;;;;29.82;52.78809;938.499;;;;
2020/08/12 11:22:53;;;;;;;1.6;1.5;;;;;;;29.52;54.12305;938.4609;;;;
2020/08/12 11:25:21;;;;;;;1.1;1;;;;;;;29.48;54.27344;938.4543;;;;
2020/08/12 11:27:49;;;;;;;4.1;1.8;;;;;;;29.3;55.44434;938.4132;;;;
2020/08/12 11:30:27;;;;;;;2.6;1.8;;;;;;;29.18;56.20215;938.4069;;;;
2020/08/12 11:32:58;;;;;;;3;1.6;;;;;;;29.07;57.22461;938.445;;;;
2020/08/12 11:35:26;;;;;;;1.2;0.9;;;;;;;29.68;58.75684;938.437;;;;
2020/08/12 11:37:51;;;;;;;2.7;1.6;;;;;;;29.71;58.41406;938.4327;;;;
2020/08/12 11:40:20;;;;;;;4.7;2.2;;;;;;;30.04;57.83691;938.3856;;;;
2020/08/12 11:42:45;;;;;;;1.8;1.1;;;;;;;30.45;55.02344;938.4125;;;;
2020/08/12 11:45:22;;;;;;;3.4;1;;;;;;;30.98;53.35352;938.3812;;;;
2020/08/12 11:47:48;;;;;;;1.5;0.9;;;;;;;31.91;50.53906;938.373;;;;
2020/08/12 11:50:19;;;;;;;2.6;1.5;;;;;;;32.36;47.09961;938.3019;;;;
2020/08/12 11:52:44;;;;;;;1.4;1.3;;;;;;;32.58;46.06641;938.3516;;;;
2020/08/12 11:55:19;;;;;;;6.6;1.6;;;;;;;32.63;46.875;938.3459;;;;
2020/08/12 11:57:45;;;;;;;1.2;1;;;;;;;32.75;46.23926;938.426;;;;
2020/08/12 12:00:16;;;;;;;1.6;1.3;;;;;;;32.93;46.28223;938.3951;;;;
2020/08/12 12:02:46;;;;;;;1.5;1.2;;;;;;;32.9;45.95508;938.4071;;;;
2020/08/12 12:05:21;;;;;;;2.1;1.2;;;;;;;32.68;44.43262;938.2826;;;;
2020/08/12 12:07:46;;;;;;;2;1.5;;;;;;;32.06;46.0498;938.3525;;;;
2020/08/12 12:10:12;;;;;;;2.2;1.4;;;;;;;31.66;45.50586;938.2346;;;;
2020/08/12 12:12:37;;;;;;;2.7;1.3;;;;;;;31.3;46.30664;938.2996;;;;
2020/08/12 12:15:02;;;;;;;2.7;1.5;;;;;;;31.24;47.82129;938.2831;;;;
2020/08/12 12:17:27;;;;;;;1.9;1.3;;;;;;;31.24;47.30664;938.2957;;;;
2020/08/12 12:19:52;;;;;;;1.5;1.4;;;;;;;30.84;47.35938;938.2628;;;;
2020/08/12 12:22:17;;;;;;;2.4;1.2;;;;;;;30.73;47.48047;938.2957;;;;
2020/08/12 12:24:43;;;;;;;2.1;1.6;;;;;;;30.52;48.37891;938.2393;;;;
2020/08/12 12:27:08;;;;;;;1.5;1.2;;;;;;;30.44;48.32129;938.2081;;;;
2020/08/12 12:29:33;;;;;;;1.6;1.3;;;;;;;30.45;48.8125;938.2465;;;;
2020/08/12 12:31:58;;;;;;;1.3;1.2;;;;;;;30.31;47.9248;938.1987;;;;
2020/08/12 12:34:23;;;;;;;1.6;1.1;;;;;;;30.37;49.31738;938.2073;;;;
2020/08/12 12:36:48;;;;;;;2.5;1.6;;;;;;;30.22;50.84082;938.1911;;;;
2020/08/12 12:39:13;;;;;;;3.4;1.5;;;;;;;30.18;49.79688;938.1586;;;;
2020/08/12 12:41:40;;;;;;;1.9;0.9;;;;;;;30.23;50.6748;938.0793;;;;
2020/08/12 12:44:05;;;;;;;2.4;1.2;;;;;;;30.16;51.52637;938.1376;;;;
2020/08/12 12:46:32;;;;;;;2.4;1.4;;;;;;;30.23;51.37891;938.1812;;;;
2020/08/12 12:48:57;;;;;;;1.7;1.3;;;;;;;30.57;49.8291;938.1733;;;;
2020/08/12 12:51:24;;;;;;;1.7;1.4;;;;;;;30.67;49.13379;938.2291;;;;
2020/08/12 12:53:49;;;;;;;2.4;1.6;;;;;;;30.74;48.46094;938.1683;;;;
2020/08/12 12:56:15;;;;;;;2;1.4;;;;;;;30.74;47.94727;938.1831;;;;
2020/08/12 12:58:40;;;;;;;2.5;1.3;;;;;;;30.92;47.42773;938.1545;;;;
2020/08/12 13:01:05;;;;;;;1.5;1.2;;;;;;;31.12;45.94238;938.1592;;;;
2020/08/12 13:03:30;;;;;;;2.6;1.2;;;;;;;30.91;46.98438;938.1356;;;;
2020/08/12 13:05:55;;;;;;;3.2;1.9;;;;;;;30.66;47.77051;938.2282;;;;
2020/08/12 13:08:20;;;;;;;1.7;1.2;;;;;;;30.59;46.76074;938.2246;;;;
2020/08/12 13:10:49;;;;;;;3.1;1.3;;;;;;;30.31;49.74023;938.2219;;;;
2020/08/12 13:13:14;;;;;;;3.1;1.6;;;;;;;30.28;48.49512;938.2342;;;;
2020/08/12 13:15:42;;;;;;;1.8;1.3;;;;;;;29.61;50.76074;938.2597;;;;
2020/08/12 13:18:07;;;;;;;1.7;1.1;;;;;;;29.52;52.75293;938.2555;;;;
2020/08/12 13:20:34;;;;;;;1.8;1.3;;;;;;;29.39;52.84473;938.2971;;;;
2020/08/12 13:22:59;;;;;;;5.3;1.9;;;;;;;29;53.52539;938.3195;;;;
2020/08/12 13:25:25;;;;;;;2.9;1.7;;;;;;;28.76;54.97266;938.2651;;;;
2020/08/12 13:27:50;;;;;;;1.9;1.6;;;;;;;28.32;58.08008;938.3276;;;;
2020/08/12 13:30:27;;;;;;;2.8;1.4;;;;;;;28.24;59.80469;938.3264;;;;
2020/08/12 13:32:52;;;;;;;3.2;1.6;;;;;;;28.12;61.80859;938.3127;;;;
2020/08/12 13:35:20;;;;;;;2.1;1.4;;;;;;;27.62;63.40234;938.3813;;;;
2020/08/12 13:37:46;;;;;;;3.4;1.7;;;;;;;27.53;64.31348;938.4135;;;;
2020/08/12 13:40:13;;;;;;;4.4;1.9;;;;;;;27.38;64.31641;938.4386;;;;
2020/08/12 13:42:38;;;;;;;3.3;1.7;;;;;;;27.23;64.85352;938.4858;;;;
2020/08/12 13:45:03;;;;;;;2.8;2;;;;;;;27.31;64.31934;938.4185;;;;
2020/08/12 13:47:29;;;;;;;1.5;1.3;;;;;;;27.33;64.52246;938.3842;;;;
2020/08/12 13:49:54;;;;;;;2.8;1.4;;;;;;;27.26;64.39648;938.3663;;;;
2020/08/12 13:52:19;;;;;;;2.3;1.5;;;;;;;27.21;64.48438;938.3574;;;;
2020/08/12 13:54:44;;;;;;;6.5;1.9;;;;;;;26.97;64.44824;938.2957;;;;
2020/08/12 13:57:09;;;;;;;2.4;1.6;;;;;;;26.77;66.42188;938.3798;;;;
2020/08/12 13:59:34;;;;;;;2.9;2.1;;;;;;;26.69;67.3457;938.4102;;;;
2020/08/12 14:02:03;;;;;;;1.6;1.3;;;;;;;26.61;67.12012;938.4698;;;;
2020/08/12 14:04:28;;;;;;;2.3;1.4;;;;;;;26.24;67.73926;938.4662;;;;
2020/08/12 14:06:53;;;;;;;2.4;1.5;;;;;;;25.82;69.44922;938.495;;;;
2020/08/12 14:09:18;;;;;;;1;0.9;;;;;;;25.71;70.49609;938.4852;;;;
2020/08/12 14:11:44;;;;;;;3.4;2;;;;;;;25.67;71.11523;938.4617;;;;
2020/08/12 14:14:09;;;;;;;2.8;1.7;;;;;;;25.54;70.45605;938.462;;;;
2020/08/12 14:16:35;;;;;;;2;1.2;;;;;;;25.6;70.10156;938.4294;;;;
2020/08/12 14:19:00;;;;;;;3.5;1.5;;;;;;;25.6;70.16016;938.462;;;;
2020/08/12 14:21:25;;;;;;;1.8;1.6;;;;;;;25.52;69.68652;938.4758;;;;
2020/08/12 14:23:50;;;;;;;2.3;1.2;;;;;;;25.39;70.01953;938.476;;;;